createdAt,value
2022-10-07T00:00:00.016Z,8.95
2022-10-07T00:02:05.676Z,8.02
2022-10-07T00:04:10.404Z,5.95
2022-10-07T00:06:18.043Z,8.50
2022-10-07T00:08:22.714Z,5.72
2022-10-07T00:10:27.697Z,8.60
2022-10-07T00:12:33.571Z,6.78
2022-10-07T00:14:42.538Z,9.93
2022-10-07T00:16:47.294Z,11.75
2022-10-07T00:18:52.099Z,9.40
2022-10-07T00:20:56.790Z,8.70
2022-10-07T00:23:01.476Z,8.90
2022-10-07T00:25:06.440Z,9.13
2022-10-07T00:27:11.200Z,12.82
2022-10-07T00:29:15.939Z,10.93
2022-10-07T00:31:24.914Z,10.63
2022-10-07T00:33:30.010Z,8.88
2022-10-07T00:35:37.754Z,7.40
2022-10-07T00:37:44.293Z,8.98
2022-10-07T00:39:49.273Z,7.78
2022-10-07T00:41:55.513Z,8.60
2022-10-07T00:44:00.272Z,9.35
2022-10-07T00:46:10.782Z,7.35
2022-10-07T00:48:20.544Z,9.00
2022-10-07T00:50:30.714Z,7.75
2022-10-07T00:52:40.574Z,9.77
2022-10-07T00:54:46.165Z,8.80
2022-10-07T00:56:54.076Z,10.52
2022-10-07T00:59:01.699Z,8.35
2022-10-07T01:01:08.156Z,7.10
2022-10-07T01:03:12.956Z,9.77
2022-10-07T01:05:21.238Z,7.60
2022-10-07T01:07:26.066Z,13.55
2022-10-07T01:09:31.030Z,9.43
2022-10-07T01:11:49.054Z,10.65
2022-10-07T01:14:04.534Z,7.13
2022-10-07T01:16:17.457Z,8.48
2022-10-07T01:18:28.466Z,6.72
2022-10-07T01:20:41.140Z,8.18
2022-10-07T01:22:56.077Z,5.88
2022-10-07T01:25:18.793Z,8.13
2022-10-07T01:27:29.612Z,9.85
2022-10-07T01:29:41.216Z,6.28
2022-10-07T01:31:50.721Z,7.10
2022-10-07T01:33:57.418Z,5.95
2022-10-07T01:36:09.573Z,10.75
2022-10-07T01:38:17.886Z,7.22
2022-10-07T01:40:27.181Z,6.88
2022-10-07T01:42:35.237Z,6.47
2022-10-07T01:44:42.796Z,9.18
2022-10-07T01:46:49.614Z,10.23
2022-10-07T01:48:55.035Z,8.38
2022-10-07T01:51:00.514Z,7.25
2022-10-07T01:53:17.901Z,8.05
2022-10-07T01:55:38.329Z,4.95
2022-10-07T01:57:56.131Z,6.07
2022-10-07T02:00:12.834Z,7.28
2022-10-07T02:02:30.727Z,6.35
2022-10-07T02:04:59.315Z,7.10
2022-10-07T02:07:17.786Z,7.25
2022-10-07T02:09:29.346Z,6.22
2022-10-07T02:11:41.299Z,4.55
2022-10-07T02:14:00.427Z,7.47
2022-10-07T02:16:18.794Z,9.13
2022-10-07T02:18:23.680Z,8.18
2022-10-07T02:20:34.126Z,10.23
2022-10-07T02:22:41.728Z,6.97
2022-10-07T02:24:48.454Z,9.48
2022-10-07T02:26:56.767Z,7.25
2022-10-07T02:29:07.719Z,4.78
2022-10-07T02:31:18.215Z,6.43
2022-10-07T02:33:27.435Z,5.72
2022-10-07T02:35:37.681Z,5.72
2022-10-07T02:37:47.196Z,5.57
2022-10-07T02:39:52.244Z,6.47
2022-10-07T02:42:03.689Z,4.30
2022-10-07T02:44:21.795Z,9.95
2022-10-07T02:46:30.594Z,6.32
2022-10-07T02:48:42.238Z,8.35
2022-10-07T02:50:51.796Z,4.78
2022-10-07T02:52:58.943Z,4.13
2022-10-07T02:55:08.649Z,4.78
2022-10-07T02:57:16.407Z,8.85
2022-10-07T02:59:25.791Z,4.15
2022-10-07T03:01:35.381Z,5.50
2022-10-07T03:03:40.316Z,5.53
2022-10-07T03:05:45.199Z,7.43
2022-10-07T03:07:51.293Z,5.43
2022-10-07T03:09:56.437Z,5.95
2022-10-07T03:14:06.309Z,6.25
2022-10-07T03:16:13.728Z,8.93
2022-10-07T03:18:29.433Z,6.35
2022-10-07T03:20:43.060Z,4.85
2022-10-07T03:22:48.180Z,7.82
2022-10-07T03:24:55.533Z,7.50
2022-10-07T03:27:03.073Z,6.88
2022-10-07T03:29:08.525Z,6.82
2022-10-07T03:31:16.984Z,5.95
2022-10-07T03:33:26.791Z,5.85
2022-10-07T03:35:31.991Z,6.10
2022-10-07T03:37:37.220Z,5.65
2022-10-07T03:39:43.680Z,6.30
2022-10-07T03:41:50.183Z,7.75
2022-10-07T03:43:59.238Z,7.05
2022-10-07T03:46:05.369Z,5.57
2022-10-07T03:48:15.256Z,9.35
2022-10-07T03:50:20.054Z,6.57
2022-10-07T03:52:24.843Z,5.15
2022-10-07T03:54:31.291Z,5.55
2022-10-07T03:56:36.095Z,6.65
2022-10-07T03:58:41.173Z,7.00
2022-10-07T04:00:48.695Z,5.93
2022-10-07T04:02:53.978Z,8.13
2022-10-07T04:07:06.185Z,5.70
2022-10-07T04:09:11.371Z,6.65
2022-10-07T04:11:17.912Z,5.90
2022-10-07T04:13:23.208Z,8.13
2022-10-07T04:15:29.746Z,5.38
2022-10-07T04:17:35.717Z,7.05
2022-10-07T04:19:40.597Z,5.95
2022-10-07T04:21:47.951Z,6.47
2022-10-07T04:23:53.176Z,6.03
2022-10-07T04:25:58.177Z,7.65
2022-10-07T04:28:04.994Z,5.53
2022-10-07T04:30:11.373Z,6.60
2022-10-07T04:32:18.153Z,7.82
2022-10-07T04:34:23.055Z,8.13
2022-10-07T04:36:28.610Z,8.20
2022-10-07T04:38:46.699Z,9.40
2022-10-07T04:40:53.046Z,8.60
2022-10-07T04:43:12.615Z,5.75
2022-10-07T04:45:18.154Z,7.07
2022-10-07T04:47:22.987Z,7.35
2022-10-07T04:49:27.943Z,7.13
2022-10-07T04:51:33.863Z,7.22
2022-10-07T04:53:40.032Z,5.88
2022-10-07T04:55:52.003Z,7.35
2022-10-07T04:57:58.849Z,7.35
2022-10-07T05:00:03.613Z,6.53
2022-10-07T05:02:08.722Z,5.68
2022-10-07T05:04:14.481Z,4.85
2022-10-07T05:06:19.268Z,8.25
2022-10-07T05:08:27.161Z,5.10
2022-10-07T05:10:33.688Z,5.97
2022-10-07T05:12:41.617Z,5.68
2022-10-07T05:14:46.809Z,12.02
2022-10-07T05:16:52.368Z,8.15
2022-10-07T05:19:00.117Z,8.65
2022-10-07T05:21:07.942Z,6.70
2022-10-07T05:23:17.464Z,6.00
2022-10-07T05:25:22.845Z,4.40
2022-10-07T05:27:28.029Z,6.25
2022-10-07T05:29:35.433Z,7.43
2022-10-07T05:31:40.350Z,6.28
2022-10-07T05:35:51.376Z,6.80
2022-10-07T05:37:56.645Z,7.38
2022-10-07T05:40:01.816Z,7.75
2022-10-07T05:42:07.493Z,7.07
2022-10-07T05:44:20.526Z,6.63
2022-10-07T05:46:30.553Z,6.47
2022-10-07T05:48:39.530Z,8.48
2022-10-07T05:50:50.162Z,6.75
2022-10-07T05:52:55.069Z,12.32
2022-10-07T05:55:00.741Z,10.15
2022-10-07T05:57:05.543Z,10.20
2022-10-07T05:59:12.002Z,7.32
2022-10-07T06:01:20.698Z,5.97
2022-10-07T06:03:29.253Z,10.90
2022-10-07T06:05:35.565Z,5.97
2022-10-07T06:07:40.570Z,7.93
2022-10-07T06:09:59.069Z,6.68
2022-10-07T06:12:16.548Z,6.72
2022-10-07T06:14:22.199Z,8.10
2022-10-07T06:16:27.863Z,5.57
2022-10-07T06:18:35.850Z,7.93
2022-10-07T06:20:40.720Z,4.35
2022-10-07T06:22:45.739Z,6.55
2022-10-07T06:24:56.588Z,8.40
2022-10-07T06:27:02.158Z,6.03
2022-10-07T06:29:08.365Z,7.50
2022-10-07T06:31:15.348Z,8.02
2022-10-07T06:33:22.302Z,6.13
2022-10-07T06:35:29.737Z,5.90
2022-10-07T06:37:35.702Z,9.13
2022-10-07T06:39:41.273Z,6.82
2022-10-07T06:41:47.329Z,7.00
2022-10-07T06:44:11.791Z,9.75
2022-10-07T06:46:23.104Z,7.43
2022-10-07T06:48:29.945Z,9.55
2022-10-07T06:50:37.492Z,8.48
2022-10-07T06:52:43.588Z,5.50
2022-10-07T06:54:48.990Z,8.02
2022-10-07T06:56:55.597Z,7.10
2022-10-07T06:59:01.995Z,7.90
2022-10-07T07:01:15.946Z,5.07
2022-10-07T07:03:20.892Z,6.70
2022-10-07T07:05:25.704Z,6.22
2022-10-07T07:07:33.061Z,6.05
2022-10-07T07:09:38.489Z,7.45
2022-10-07T07:11:45.404Z,5.45
2022-10-07T07:13:57.509Z,6.13
2022-10-07T07:16:03.710Z,5.78
2022-10-07T07:18:13.580Z,6.35
2022-10-07T07:20:18.565Z,7.10
2022-10-07T07:22:23.431Z,5.28
2022-10-07T07:26:36.556Z,6.80
2022-10-07T07:28:41.798Z,8.63
2022-10-07T07:30:48.912Z,8.43
2022-10-07T07:32:54.009Z,7.80
2022-10-07T07:35:00.830Z,7.28
2022-10-07T07:37:08.602Z,6.88
2022-10-07T07:39:20.949Z,9.85
2022-10-07T07:41:38.868Z,7.03
2022-10-07T07:43:43.702Z,5.80
2022-10-07T07:45:48.815Z,7.13
2022-10-07T07:47:53.690Z,8.80
2022-10-07T07:52:08.624Z,6.35
2022-10-07T07:54:19.089Z,10.48
2022-10-07T07:56:26.237Z,11.18
2022-10-07T08:00:38.511Z,9.20
2022-10-07T08:02:45.455Z,9.88
2022-10-07T08:04:54.822Z,8.82
2022-10-07T08:07:00.896Z,10.95
2022-10-07T08:09:06.966Z,9.45
2022-10-07T08:13:18.195Z,9.63
2022-10-07T08:15:25.619Z,6.03
2022-10-07T08:17:31.124Z,8.52
2022-10-07T08:19:35.926Z,9.40
2022-10-07T08:21:42.460Z,8.48
2022-10-07T08:23:56.461Z,7.40
2022-10-07T08:26:04.150Z,10.75
2022-10-07T08:28:09.468Z,12.75
2022-10-07T08:30:15.128Z,11.15
2022-10-07T08:32:22.477Z,8.80
2022-10-07T08:34:27.274Z,9.48
2022-10-07T08:36:34.476Z,10.40
2022-10-07T08:38:41.562Z,13.30
2022-10-07T08:40:50.898Z,10.88
2022-10-07T08:42:55.928Z,12.98
2022-10-07T08:45:00.784Z,8.40
2022-10-07T08:47:14.271Z,9.38
2022-10-07T08:49:27.814Z,8.45
2022-10-07T08:51:39.359Z,12.60
2022-10-07T08:53:44.695Z,11.73
2022-10-07T08:55:54.999Z,12.60
2022-10-07T08:58:19.742Z,11.70
2022-10-07T09:00:39.929Z,12.43
2022-10-07T09:02:58.374Z,13.05
2022-10-07T09:05:15.515Z,12.55
2022-10-07T09:07:34.319Z,10.70
2022-10-07T09:09:43.161Z,10.20
2022-10-07T09:11:50.729Z,9.80
2022-10-07T09:14:00.310Z,9.55
2022-10-07T09:16:09.621Z,9.00
2022-10-07T09:18:20.728Z,13.20
2022-10-07T09:20:35.783Z,9.82
2022-10-07T09:22:42.812Z,18.77
2022-10-07T09:24:49.213Z,14.65
2022-10-07T09:26:56.175Z,14.98
2022-10-07T09:29:02.145Z,10.68
2022-10-07T09:31:07.173Z,12.93
2022-10-07T09:33:18.613Z,13.07
2022-10-07T09:35:26.300Z,14.50
2022-10-07T09:37:34.209Z,12.45
2022-10-07T09:39:39.125Z,10.98
2022-10-07T09:41:47.233Z,14.07
2022-10-07T09:44:01.926Z,12.02
2022-10-07T09:46:07.388Z,9.80
2022-10-07T09:48:23.665Z,11.40
2022-10-07T09:50:36.531Z,11.30
2022-10-07T09:52:58.167Z,8.45
2022-10-07T09:55:37.790Z,14.95
2022-10-07T09:57:43.696Z,13.05
2022-10-07T09:59:48.679Z,12.00
2022-10-07T10:01:55.685Z,13.70
2022-10-07T10:04:01.274Z,13.13
2022-10-07T10:06:09.016Z,14.60
2022-10-07T10:08:28.193Z,16.38
2022-10-07T10:10:35.406Z,9.73
2022-10-07T10:12:49.416Z,32.97
2022-10-07T10:14:55.820Z,13.13
2022-10-07T10:17:00.687Z,18.65
2022-10-07T10:19:07.921Z,15.55
2022-10-07T10:21:30.278Z,12.50
2022-10-07T10:23:39.998Z,13.23
2022-10-07T10:26:06.041Z,14.27
2022-10-07T10:28:17.929Z,11.00
2022-10-07T10:30:25.276Z,10.88
2022-10-07T10:32:54.029Z,8.85
2022-10-07T10:35:05.657Z,15.45
2022-10-07T10:37:18.531Z,16.27
2022-10-07T10:39:39.257Z,10.52
2022-10-07T10:41:51.171Z,16.02
2022-10-07T10:44:20.736Z,12.23
2022-10-07T10:46:51.073Z,13.13
2022-10-07T10:49:02.402Z,20.48
2022-10-07T10:51:21.452Z,12.27
2022-10-07T10:53:37.844Z,13.82
2022-10-07T10:56:06.438Z,12.85
2022-10-07T10:58:24.140Z,8.63
2022-10-07T11:00:35.817Z,12.80
2022-10-07T11:03:00.836Z,9.63
2022-10-07T11:05:08.830Z,14.50
2022-10-07T11:07:24.460Z,11.98
2022-10-07T11:11:40.792Z,12.20
2022-10-07T11:13:49.177Z,19.70
2022-10-07T11:15:58.703Z,15.15
2022-10-07T11:18:08.325Z,17.83
2022-10-07T11:20:21.688Z,14.07
2022-10-07T11:22:40.405Z,14.07
2022-10-07T11:24:50.841Z,12.45
2022-10-07T11:27:02.557Z,16.00
2022-10-07T11:29:21.271Z,10.27
2022-10-07T11:31:33.530Z,10.40
2022-10-07T11:33:45.176Z,7.78
2022-10-07T11:35:55.334Z,8.75
2022-10-07T11:38:06.139Z,10.48
2022-10-07T11:40:12.679Z,8.77
2022-10-07T11:42:25.685Z,11.77
2022-10-07T11:44:34.687Z,9.25
2022-10-07T11:46:44.947Z,10.70
2022-10-07T11:48:54.626Z,7.07
2022-10-07T11:51:04.897Z,7.28
2022-10-07T11:53:13.730Z,6.82
2022-10-07T11:55:25.186Z,11.50
2022-10-07T11:57:34.831Z,9.55
2022-10-07T11:59:46.344Z,13.25
2022-10-07T12:01:56.969Z,9.05
2022-10-07T12:04:38.980Z,8.52
2022-10-07T12:07:18.730Z,9.80
2022-10-07T12:09:53.542Z,7.40
2022-10-07T12:11:59.607Z,7.95
2022-10-07T12:14:42.922Z,14.32
2022-10-07T12:16:57.660Z,11.55
2022-10-07T12:19:24.047Z,8.90
2022-10-07T12:21:29.136Z,8.65
2022-10-07T12:23:51.610Z,8.68
2022-10-07T12:26:04.909Z,9.90
2022-10-07T12:28:19.002Z,8.48
2022-10-07T12:30:44.658Z,33.85
2022-10-07T12:33:01.236Z,13.98
2022-10-07T12:35:54.895Z,8.88
2022-10-07T12:38:05.341Z,8.20
2022-10-07T12:40:18.120Z,6.55
2022-10-07T12:42:23.182Z,8.90
2022-10-07T12:44:34.215Z,6.68
2022-10-07T12:46:49.425Z,6.97
2022-10-07T12:49:01.657Z,6.32
2022-10-07T12:51:09.706Z,7.38
2022-10-07T12:53:15.311Z,12.02
2022-10-07T12:55:29.182Z,8.20
2022-10-07T12:57:36.893Z,7.40
2022-10-07T12:59:47.555Z,9.80
2022-10-07T13:02:28.877Z,7.10
2022-10-07T13:04:53.761Z,5.78
2022-10-07T13:07:31.314Z,5.65
2022-10-07T13:10:01.607Z,5.72
2022-10-07T13:12:18.129Z,8.02
2022-10-07T13:14:29.395Z,6.70
2022-10-07T13:16:39.831Z,7.50
2022-10-07T13:18:55.283Z,12.05
2022-10-07T13:21:12.680Z,8.70
2022-10-07T13:23:24.557Z,6.18
2022-10-07T13:25:32.858Z,7.18
2022-10-07T13:27:38.715Z,7.50
2022-10-07T13:29:44.174Z,6.85
2022-10-07T13:32:05.591Z,7.57
2022-10-07T13:34:22.786Z,7.30
2022-10-07T13:36:29.829Z,6.90
2022-10-07T13:38:34.932Z,9.27
2022-10-07T13:42:45.095Z,8.07
2022-10-07T13:44:50.050Z,9.07
2022-10-07T13:47:00.183Z,5.28
2022-10-07T13:49:06.137Z,8.88
2022-10-07T13:51:27.480Z,6.65
2022-10-07T13:53:35.042Z,8.32
2022-10-07T13:55:39.845Z,8.55
2022-10-07T13:57:44.606Z,5.63
2022-10-07T13:59:51.772Z,6.65
2022-10-07T14:01:59.206Z,8.50
2022-10-07T14:04:10.791Z,10.32
2022-10-07T14:06:40.629Z,8.02
2022-10-07T14:08:53.488Z,6.05
2022-10-07T14:11:03.559Z,9.32
2022-10-07T14:13:09.827Z,8.80
2022-10-07T14:15:18.421Z,6.13
2022-10-07T14:17:31.553Z,7.93
2022-10-07T14:19:36.427Z,5.85
2022-10-07T14:21:45.794Z,9.68
2022-10-07T14:23:50.592Z,7.75
2022-10-07T14:25:57.860Z,7.82
2022-10-07T14:28:19.363Z,6.65
2022-10-07T14:30:29.564Z,7.38
2022-10-07T14:32:46.994Z,5.97
2022-10-07T14:35:04.447Z,7.78
2022-10-07T14:37:13.746Z,9.80
2022-10-07T14:39:33.477Z,6.78
2022-10-07T14:41:38.544Z,7.53
2022-10-07T14:47:54.432Z,6.88
2022-10-07T14:50:01.290Z,5.32
2022-10-07T14:52:07.114Z,7.70
2022-10-07T14:54:15.300Z,5.68
2022-10-07T14:56:26.949Z,5.30
2022-10-07T14:58:31.704Z,5.43
2022-10-07T15:00:39.605Z,7.05
2022-10-07T15:02:45.079Z,5.45
2022-10-07T15:04:51.226Z,7.82
2022-10-07T15:06:56.072Z,6.45
2022-10-07T15:09:00.840Z,6.35
2022-10-07T15:11:08.616Z,6.07
2022-10-07T15:13:14.365Z,7.53
2022-10-07T15:15:19.210Z,6.45
2022-10-07T15:17:23.987Z,5.80
2022-10-07T15:19:28.996Z,5.40
2022-10-07T15:21:33.977Z,7.90
2022-10-07T15:23:38.710Z,6.30
2022-10-07T15:25:44.000Z,4.95
2022-10-07T15:27:51.812Z,5.07
2022-10-07T15:29:56.568Z,7.18
2022-10-07T15:32:01.306Z,6.38
2022-10-07T15:34:07.127Z,6.07
2022-10-07T15:36:13.237Z,5.95
2022-10-07T15:38:17.998Z,7.15
2022-10-07T15:40:22.933Z,4.00
2022-10-07T15:42:28.206Z,7.22
2022-10-07T15:46:40.179Z,8.23
2022-10-07T15:48:44.954Z,8.10
2022-10-07T15:50:50.705Z,10.38
2022-10-07T15:52:55.425Z,8.07
2022-10-07T15:55:05.092Z,7.30
2022-10-07T15:57:12.066Z,6.70
2022-10-07T15:59:17.063Z,8.15
2022-10-07T16:01:26.547Z,8.68
2022-10-07T16:03:35.728Z,8.00
2022-10-07T16:05:40.477Z,7.03
2022-10-07T16:07:45.240Z,8.27
2022-10-07T16:09:49.971Z,8.95
2022-10-07T16:11:54.923Z,7.50
2022-10-07T16:14:02.094Z,6.68
2022-10-07T16:16:09.560Z,6.10
2022-10-07T16:18:16.931Z,8.60
2022-10-07T16:20:21.665Z,10.60
2022-10-07T16:22:26.468Z,8.80
2022-10-07T16:24:35.156Z,9.10
2022-10-07T16:26:40.402Z,7.82
2022-10-07T16:28:59.176Z,8.05
2022-10-07T16:31:04.040Z,11.32
2022-10-07T16:33:08.843Z,7.65
2022-10-07T16:35:16.289Z,8.02
2022-10-07T16:37:21.010Z,7.63
2022-10-07T16:39:25.936Z,8.18
2022-10-07T16:41:30.859Z,9.85
2022-10-07T16:43:35.950Z,11.38
2022-10-07T16:47:46.764Z,9.02
2022-10-07T16:49:52.216Z,7.85
2022-10-07T16:52:00.537Z,8.05
2022-10-07T16:54:07.502Z,7.38
2022-10-07T16:56:12.212Z,11.50
2022-10-07T16:58:16.992Z,7.88
2022-10-07T17:00:22.184Z,7.28
2022-10-07T17:02:30.207Z,6.90
2022-10-07T17:04:34.974Z,8.18
2022-10-07T17:06:40.122Z,9.00
2022-10-07T17:08:48.913Z,8.25
2022-10-07T17:10:53.989Z,8.63
2022-10-07T17:12:58.768Z,12.00
2022-10-07T17:15:03.577Z,11.10
2022-10-07T17:17:08.505Z,11.20
2022-10-07T17:19:15.647Z,9.27
2022-10-07T17:21:20.814Z,8.52
2022-10-07T17:25:34.373Z,10.93
2022-10-07T17:27:39.141Z,8.70
2022-10-07T17:29:43.872Z,12.98
2022-10-07T17:31:50.842Z,11.13
2022-10-07T17:33:55.773Z,9.40
2022-10-07T17:36:06.876Z,8.80
2022-10-07T17:38:11.744Z,10.95
2022-10-07T17:40:16.698Z,9.55
2022-10-07T17:42:24.157Z,12.13
2022-10-07T17:44:30.069Z,10.95
2022-10-07T17:46:36.646Z,11.48
2022-10-07T17:48:45.062Z,13.40
2022-10-07T17:50:49.825Z,14.20
2022-10-07T17:52:54.600Z,12.88
2022-10-07T17:54:59.540Z,15.10
2022-10-07T17:57:04.474Z,13.93
2022-10-07T17:59:12.378Z,15.05
2022-10-07T18:01:19.608Z,22.80
2022-10-07T18:03:24.689Z,20.35
2022-10-07T18:05:29.444Z,22.58
2022-10-07T18:07:35.155Z,19.75
2022-10-07T18:09:40.058Z,24.23
2022-10-07T18:11:57.264Z,22.27
2022-10-07T18:14:14.424Z,22.73
2022-10-07T18:16:23.267Z,22.90
2022-10-07T18:18:30.056Z,20.52
2022-10-07T18:20:34.772Z,22.73
2022-10-07T18:22:39.563Z,22.75
2022-10-07T18:24:46.107Z,21.25
2022-10-07T18:26:50.824Z,19.73
2022-10-07T18:28:57.570Z,20.40
2022-10-07T18:31:02.774Z,20.48
2022-10-07T18:33:10.280Z,21.88
2022-10-07T18:35:15.092Z,22.92
2022-10-07T18:37:19.797Z,27.33
2022-10-07T18:39:24.676Z,30.98
2022-10-07T18:41:29.692Z,25.15
2022-10-07T18:43:35.751Z,31.10
2022-10-07T18:45:40.604Z,29.25
2022-10-07T18:47:45.569Z,29.15
2022-10-07T18:49:55.010Z,29.55
2022-10-07T18:51:59.734Z,42.45
2022-10-07T18:54:04.432Z,37.40
2022-10-07T18:56:11.238Z,37.78
2022-10-07T18:58:16.252Z,37.38
2022-10-07T19:00:21.223Z,36.10
2022-10-07T19:02:25.954Z,32.13
2022-10-07T19:04:32.667Z,30.63
2022-10-07T19:06:43.917Z,32.90
2022-10-07T19:08:49.145Z,27.58
2022-10-07T19:13:10.962Z,25.95
2022-10-07T19:15:15.690Z,25.95
2022-10-07T19:17:20.474Z,28.70
2022-10-07T19:19:26.784Z,25.00
2022-10-07T19:21:31.907Z,27.20
2022-10-07T19:25:47.710Z,16.92
2022-10-07T19:27:52.442Z,15.93
2022-10-07T19:29:58.461Z,15.73
2022-10-07T19:32:07.809Z,15.45
2022-10-07T19:34:14.904Z,14.02
2022-10-07T19:36:21.892Z,13.23
2022-10-07T19:38:27.208Z,16.48
2022-10-07T19:40:40.115Z,15.35
2022-10-07T19:42:44.850Z,14.27
2022-10-07T19:44:49.659Z,11.77
2022-10-07T19:46:54.754Z,14.68
2022-10-07T19:49:01.206Z,11.55
2022-10-07T19:51:08.707Z,12.05
2022-10-07T19:53:14.861Z,11.23
2022-10-07T19:55:19.858Z,14.88
2022-10-07T19:57:27.377Z,14.27
2022-10-07T19:59:32.178Z,14.52
2022-10-07T20:01:39.506Z,15.45
2022-10-07T20:03:44.903Z,14.05
2022-10-07T20:05:49.597Z,11.95
2022-10-07T20:07:54.670Z,14.10
2022-10-07T20:10:01.091Z,12.75
2022-10-07T20:12:06.556Z,12.95
2022-10-07T20:14:16.319Z,12.30
2022-10-07T20:16:23.744Z,13.68
2022-10-07T20:18:28.505Z,11.68
2022-10-07T20:20:33.501Z,12.70
2022-10-07T20:22:38.355Z,12.85
2022-10-07T20:24:43.121Z,14.13
2022-10-07T20:26:47.941Z,14.65
2022-10-07T20:28:54.244Z,15.40
2022-10-07T20:31:05.145Z,12.65
2022-10-07T20:33:10.008Z,13.05
2022-10-07T20:35:14.746Z,13.70
2022-10-07T20:37:19.477Z,12.45
2022-10-07T20:39:36.792Z,14.05
2022-10-07T20:41:54.042Z,12.25
2022-10-07T20:43:59.161Z,15.57
2022-10-07T20:48:10.994Z,10.80
2022-10-07T20:50:16.398Z,12.55
2022-10-07T20:52:22.956Z,16.55
2022-10-07T20:54:29.013Z,12.88
2022-10-07T20:56:34.732Z,13.27
2022-10-07T20:58:39.542Z,14.73
2022-10-07T21:00:44.266Z,13.48
2022-10-07T21:02:51.957Z,13.52
2022-10-07T21:04:59.134Z,12.98
2022-10-07T21:07:03.963Z,15.88
2022-10-07T21:09:09.813Z,14.70
2022-10-07T21:11:14.586Z,13.20
2022-10-07T21:13:19.319Z,15.70
2022-10-07T21:15:24.055Z,14.48
2022-10-07T21:17:28.909Z,13.68
2022-10-07T21:19:36.423Z,14.25
2022-10-07T21:21:41.215Z,13.82
2022-10-07T21:23:46.002Z,18.17
2022-10-07T21:25:51.826Z,13.75
2022-10-07T21:27:56.626Z,12.65
2022-10-07T21:30:01.365Z,14.27
2022-10-07T21:32:06.458Z,14.70
2022-10-07T21:34:11.673Z,13.88
2022-10-07T21:36:21.008Z,13.85
2022-10-07T21:38:25.720Z,14.00
2022-10-07T21:40:32.210Z,18.40
2022-10-07T21:42:36.886Z,16.27
2022-10-07T21:44:41.592Z,14.73
2022-10-07T21:46:46.758Z,14.30
2022-10-07T21:48:52.200Z,14.23
2022-10-07T21:50:57.580Z,15.48
2022-10-07T21:53:04.989Z,17.20
2022-10-07T21:55:10.413Z,14.60
2022-10-07T21:57:15.274Z,16.42
2022-10-07T21:59:19.958Z,17.52
2022-10-07T22:01:26.447Z,14.20
2022-10-07T22:03:31.173Z,16.50
2022-10-07T22:05:36.285Z,14.57
2022-10-07T22:07:53.464Z,12.82
2022-10-07T22:10:01.338Z,13.32
2022-10-07T22:12:06.049Z,13.00
2022-10-07T22:14:12.756Z,13.98
2022-10-07T22:16:20.728Z,14.32
2022-10-07T22:18:25.602Z,13.35
2022-10-07T22:20:30.334Z,13.27
2022-10-07T22:22:35.252Z,14.40
2022-10-07T22:24:40.050Z,14.27
2022-10-07T22:26:51.400Z,13.75
2022-10-07T22:28:57.243Z,18.30
2022-10-07T22:31:02.048Z,21.05
2022-10-07T22:33:06.879Z,18.58
2022-10-07T22:35:30.756Z,17.10
2022-10-07T22:37:35.443Z,13.43
2022-10-07T22:39:41.211Z,14.15
2022-10-07T22:41:48.694Z,14.07
2022-10-07T22:43:53.823Z,14.18
2022-10-07T22:45:59.702Z,13.82
2022-10-07T22:48:04.561Z,16.73
2022-10-07T22:50:10.630Z,16.00
2022-10-07T22:52:15.381Z,17.52
2022-10-07T22:54:20.075Z,14.63
2022-10-07T22:56:26.102Z,16.20
2022-10-07T22:58:33.397Z,13.27
2022-10-07T23:00:38.345Z,14.75
2022-10-07T23:02:44.661Z,14.80
2022-10-07T23:04:49.747Z,13.15
2022-10-07T23:06:54.444Z,12.02
2022-10-07T23:08:59.423Z,13.63
2022-10-07T23:11:05.715Z,14.20
2022-10-07T23:13:10.448Z,14.20
2022-10-07T23:15:19.724Z,13.50
2022-10-07T23:17:24.838Z,14.50
2022-10-07T23:21:37.538Z,16.90
2022-10-07T23:23:44.122Z,15.57
2022-10-07T23:25:48.980Z,14.65
2022-10-07T23:27:54.234Z,16.67
2022-10-07T23:32:06.054Z,15.68
2022-10-07T23:34:13.940Z,16.00
2022-10-07T23:36:20.177Z,16.05
2022-10-07T23:38:26.282Z,15.43
2022-10-07T23:40:30.958Z,13.77
2022-10-07T23:42:35.778Z,15.60
2022-10-07T23:44:40.597Z,16.02
2022-10-07T23:46:45.463Z,16.17
2022-10-07T23:48:53.210Z,18.55
2022-10-07T23:50:58.100Z,19.38
2022-10-07T23:53:02.949Z,17.23
2022-10-07T23:55:10.344Z,19.30
2022-10-07T23:57:15.094Z,17.75
2022-10-07T23:59:20.144Z,17.42
